sensor_id;sensor_type;location;lat;lon;timestamp;pressure;altitude;pressure_sealevel;temperature;humidity
2711;BME280;20721;47.402;8.550;2023-07-13T00:00:39;96220;;;19.75;70.71
2711;BME280;20721;47.402;8.550;2023-07-13T00:02:39;96219;;;19.90;71.00
2711;BME280;20721;47.402;8.550;2023-07-13T00:04:39;96214;;;19.84;70.38
2711;BME280;20721;47.402;8.550;2023-07-13T00:06:39;96209;;;19.89;70.77
2711;BME280;20721;47.402;8.550;2023-07-13T00:09:39;96208;;;19.97;70.55
2711;BME280;20721;47.402;8.550;2023-07-13T00:11:39;96208;;;19.96;69.86
2711;BME280;20721;47.402;8.550;2023-07-13T00:13:39;96206;;;19.81;70.70
2711;BME280;20721;47.402;8.550;2023-07-13T00:15:39;96200;;;19.65;71.57
2711;BME280;20721;47.402;8.550;2023-07-13T00:17:39;96193;;;19.76;72.67
2711;BME280;20721;47.402;8.550;2023-07-13T00:19:39;96190;;;19.70;70.75
2711;BME280;20721;47.402;8.550;2023-07-13T00:21:39;96182;;;19.67;71.02
2711;BME280;20721;47.402;8.550;2023-07-13T00:23:39;96187;;;19.59;71.48
2711;BME280;20721;47.402;8.550;2023-07-13T00:25:39;96186;;;19.61;71.73
2711;BME280;20721;47.402;8.550;2023-07-13T00:27:39;96187;;;19.75;71.09
2711;BME280;20721;47.402;8.550;2023-07-13T00:29:39;96185;;;19.86;70.79
2711;BME280;20721;47.402;8.550;2023-07-13T00:31:39;96182;;;19.90;70.31
2711;BME280;20721;47.402;8.550;2023-07-13T00:33:40;96181;;;19.83;70.77
2711;BME280;20721;47.402;8.550;2023-07-13T00:35:39;96184;;;19.85;71.41
2711;BME280;20721;47.402;8.550;2023-07-13T00:37:39;96184;;;19.88;71.27
2711;BME280;20721;47.402;8.550;2023-07-13T00:39:39;96189;;;19.86;70.59
2711;BME280;20721;47.402;8.550;2023-07-13T00:42:39;96191;;;19.81;70.96
2711;BME280;20721;47.402;8.550;2023-07-13T00:44:39;96188;;;19.58;69.94
2711;BME280;20721;47.402;8.550;2023-07-13T00:48:39;96188;;;19.52;71.27
2711;BME280;20721;47.402;8.550;2023-07-13T00:50:39;96190;;;19.57;70.38
2711;BME280;20721;47.402;8.550;2023-07-13T00:52:40;96194;;;19.66;70.64
2711;BME280;20721;47.402;8.550;2023-07-13T00:54:40;96194;;;19.75;70.95
2711;BME280;20721;47.402;8.550;2023-07-13T00:56:40;96188;;;19.83;70.36
2711;BME280;20721;47.402;8.550;2023-07-13T00:58:39;96179;;;19.90;70.93
2711;BME280;20721;47.402;8.550;2023-07-13T01:00:39;96176;;;19.90;70.19
2711;BME280;20721;47.402;8.550;2023-07-13T01:02:40;96172;;;19.90;70.44
2711;BME280;20721;47.402;8.550;2023-07-13T01:04:39;96168;;;19.71;70.78
2711;BME280;20721;47.402;8.550;2023-07-13T01:06:39;96162;;;19.56;71.40
2711;BME280;20721;47.402;8.550;2023-07-13T01:08:40;96155;;;19.44;70.97
2711;BME280;20721;47.402;8.550;2023-07-13T01:10:39;96159;;;19.41;71.16
2711;BME280;20721;47.402;8.550;2023-07-13T01:12:39;96160;;;19.34;70.67
2711;BME280;20721;47.402;8.550;2023-07-13T01:14:39;96171;;;19.33;70.99
2711;BME280;20721;47.402;8.550;2023-07-13T01:16:40;96169;;;19.34;70.67
2711;BME280;20721;47.402;8.550;2023-07-13T01:18:39;96170;;;19.38;70.29
2711;BME280;20721;47.402;8.550;2023-07-13T01:20:39;96176;;;19.42;70.65
2711;BME280;20721;47.402;8.550;2023-07-13T01:22:39;96186;;;19.45;71.23
2711;BME280;20721;47.402;8.550;2023-07-13T01:24:40;96195;;;19.48;71.63
2711;BME280;20721;47.402;8.550;2023-07-13T01:26:39;96189;;;19.57;71.47
2711;BME280;20721;47.402;8.550;2023-07-13T01:28:39;96182;;;19.64;71.24
2711;BME280;20721;47.402;8.550;2023-07-13T01:30:40;96181;;;19.72;70.97
2711;BME280;20721;47.402;8.550;2023-07-13T01:32:41;96180;;;19.78;71.06
2711;BME280;20721;47.402;8.550;2023-07-13T01:34:42;96183;;;19.82;70.90
2711;BME280;20721;47.402;8.550;2023-07-13T01:36:39;96185;;;19.87;70.95
2711;BME280;20721;47.402;8.550;2023-07-13T01:39:39;96192;;;19.91;70.84
2711;BME280;20721;47.402;8.550;2023-07-13T01:42:39;96196;;;19.95;70.86
2711;BME280;20721;47.402;8.550;2023-07-13T01:44:39;96198;;;19.98;71.05
2711;BME280;20721;47.402;8.550;2023-07-13T01:47:39;96209;;;20.02;70.74
2711;BME280;20721;47.402;8.550;2023-07-13T01:49:39;96209;;;20.06;70.94
2711;BME280;20721;47.402;8.550;2023-07-13T01:51:39;96203;;;20.07;71.01
2711;BME280;20721;47.402;8.550;2023-07-13T01:53:39;96206;;;20.10;71.05
2711;BME280;20721;47.402;8.550;2023-07-13T01:55:39;96209;;;20.10;70.54
2711;BME280;20721;47.402;8.550;2023-07-13T01:57:39;96210;;;20.10;70.64
2711;BME280;20721;47.402;8.550;2023-07-13T01:59:39;96210;;;20.06;70.57
2711;BME280;20721;47.402;8.550;2023-07-13T02:01:39;96208;;;20.00;71.18
2711;BME280;20721;47.402;8.550;2023-07-13T02:03:39;96207;;;20.04;71.04
2711;BME280;20721;47.402;8.550;2023-07-13T02:06:39;96204;;;19.98;71.13
2711;BME280;20721;47.402;8.550;2023-07-13T02:08:40;96208;;;19.99;71.05
2711;BME280;20721;47.402;8.550;2023-07-13T02:10:39;96209;;;19.91;71.75
2711;BME280;20721;47.402;8.550;2023-07-13T02:12:39;96208;;;19.90;71.55
2711;BME280;20721;47.402;8.550;2023-07-13T02:15:40;96207;;;19.55;71.91
2711;BME280;20721;47.402;8.550;2023-07-13T02:17:39;96197;;;18.99;74.58
2711;BME280;20721;47.402;8.550;2023-07-13T02:19:40;96193;;;18.91;75.40
2711;BME280;20721;47.402;8.550;2023-07-13T02:21:39;96192;;;18.88;76.20
2711;BME280;20721;47.402;8.550;2023-07-13T02:23:39;96193;;;19.09;74.64
2711;BME280;20721;47.402;8.550;2023-07-13T02:25:39;96185;;;19.16;74.63
2711;BME280;20721;47.402;8.550;2023-07-13T02:27:39;96185;;;19.15;73.89
2711;BME280;20721;47.402;8.550;2023-07-13T02:29:39;96184;;;19.20;74.13
2711;BME280;20721;47.402;8.550;2023-07-13T02:31:39;96191;;;19.13;73.13
2711;BME280;20721;47.402;8.550;2023-07-13T02:33:39;96191;;;19.00;74.11
2711;BME280;20721;47.402;8.550;2023-07-13T02:35:39;96187;;;18.90;74.16
2711;BME280;20721;47.402;8.550;2023-07-13T02:37:39;96191;;;19.09;73.82
2711;BME280;20721;47.402;8.550;2023-07-13T02:39:39;96185;;;19.24;73.19
2711;BME280;20721;47.402;8.550;2023-07-13T02:42:40;96192;;;19.31;72.67
2711;BME280;20721;47.402;8.550;2023-07-13T02:44:39;96190;;;19.39;72.18
2711;BME280;20721;47.402;8.550;2023-07-13T02:46:39;96187;;;19.46;71.68
2711;BME280;20721;47.402;8.550;2023-07-13T02:48:39;96190;;;19.55;73.32
2711;BME280;20721;47.402;8.550;2023-07-13T02:50:39;96194;;;19.67;73.13
2711;BME280;20721;47.402;8.550;2023-07-13T02:52:39;96190;;;19.75;73.21
2711;BME280;20721;47.402;8.550;2023-07-13T02:54:39;96187;;;19.79;73.02
2711;BME280;20721;47.402;8.550;2023-07-13T02:56:39;96182;;;19.81;72.67
2711;BME280;20721;47.402;8.550;2023-07-13T02:58:39;96184;;;19.81;72.50
2711;BME280;20721;47.402;8.550;2023-07-13T03:01:39;96187;;;19.85;72.34
2711;BME280;20721;47.402;8.550;2023-07-13T03:03:39;96199;;;19.88;72.29
2711;BME280;20721;47.402;8.550;2023-07-13T03:06:39;96197;;;19.90;72.22
2711;BME280;20721;47.402;8.550;2023-07-13T03:08:40;96192;;;19.88;72.43
2711;BME280;20721;47.402;8.550;2023-07-13T03:10:40;96194;;;19.87;72.55
2711;BME280;20721;47.402;8.550;2023-07-13T03:12:39;96193;;;19.85;72.58
2711;BME280;20721;47.402;8.550;2023-07-13T03:15:39;96196;;;19.84;72.50
2711;BME280;20721;47.402;8.550;2023-07-13T03:17:40;96195;;;19.82;72.62
2711;BME280;20721;47.402;8.550;2023-07-13T03:19:39;96197;;;19.85;72.64
2711;BME280;20721;47.402;8.550;2023-07-13T03:21:39;96195;;;19.91;73.26
2711;BME280;20721;47.402;8.550;2023-07-13T03:23:39;96190;;;19.91;72.43
2711;BME280;20721;47.402;8.550;2023-07-13T03:26:39;96194;;;19.90;72.31
2711;BME280;20721;47.402;8.550;2023-07-13T03:29:39;96198;;;19.93;72.09
2711;BME280;20721;47.402;8.550;2023-07-13T03:31:39;96203;;;19.85;71.57
2711;BME280;20721;47.402;8.550;2023-07-13T03:33:39;96206;;;19.76;71.54
2711;BME280;20721;47.402;8.550;2023-07-13T03:35:40;96203;;;19.70;72.32
2711;BME280;20721;47.402;8.550;2023-07-13T03:37:42;96208;;;19.70;73.40
2711;BME280;20721;47.402;8.550;2023-07-13T03:39:39;96206;;;19.77;73.04
2711;BME280;20721;47.402;8.550;2023-07-13T03:41:39;96212;;;19.83;72.79
2711;BME280;20721;47.402;8.550;2023-07-13T03:43:39;96212;;;19.85;72.47
2711;BME280;20721;47.402;8.550;2023-07-13T03:45:39;96209;;;19.88;72.62
2711;BME280;20721;47.402;8.550;2023-07-13T03:47:39;96210;;;19.92;72.55
2711;BME280;20721;47.402;8.550;2023-07-13T03:49:39;96206;;;19.84;72.23
2711;BME280;20721;47.402;8.550;2023-07-13T03:51:39;96201;;;19.81;71.70
2711;BME280;20721;47.402;8.550;2023-07-13T03:53:40;96200;;;19.71;71.40
2711;BME280;20721;47.402;8.550;2023-07-13T03:55:39;96200;;;19.59;71.93
2711;BME280;20721;47.402;8.550;2023-07-13T03:57:40;96201;;;19.47;72.42
2711;BME280;20721;47.402;8.550;2023-07-13T03:59:39;96201;;;19.50;72.96
2711;BME280;20721;47.402;8.550;2023-07-13T04:01:40;96206;;;19.51;73.38
2711;BME280;20721;47.402;8.550;2023-07-13T04:03:40;96206;;;19.55;73.47
2711;BME280;20721;47.402;8.550;2023-07-13T04:05:40;96208;;;19.60;73.29
2711;BME280;20721;47.402;8.550;2023-07-13T04:07:40;96212;;;19.66;73.39
2711;BME280;20721;47.402;8.550;2023-07-13T04:09:39;96214;;;19.65;72.42
2711;BME280;20721;47.402;8.550;2023-07-13T04:11:40;96212;;;19.66;72.21
2711;BME280;20721;47.402;8.550;2023-07-13T04:13:39;96214;;;19.65;72.38
2711;BME280;20721;47.402;8.550;2023-07-13T04:15:40;96216;;;19.63;72.96
2711;BME280;20721;47.402;8.550;2023-07-13T04:17:39;96221;;;19.66;72.42
2711;BME280;20721;47.402;8.550;2023-07-13T04:19:39;96224;;;19.68;72.77
2711;BME280;20721;47.402;8.550;2023-07-13T04:21:39;96221;;;19.64;72.89
2711;BME280;20721;47.402;8.550;2023-07-13T04:23:39;96218;;;19.67;72.84
2711;BME280;20721;47.402;8.550;2023-07-13T04:25:43;96224;;;19.77;73.01
2711;BME280;20721;47.402;8.550;2023-07-13T04:27:39;96229;;;19.81;72.70
2711;BME280;20721;47.402;8.550;2023-07-13T04:29:39;96228;;;19.80;71.68
2711;BME280;20721;47.402;8.550;2023-07-13T04:32:39;96231;;;19.81;72.00
2711;BME280;20721;47.402;8.550;2023-07-13T04:34:39;96235;;;19.83;71.61
2711;BME280;20721;47.402;8.550;2023-07-13T04:36:39;96231;;;19.78;71.33
2711;BME280;20721;47.402;8.550;2023-07-13T04:38:40;96234;;;19.77;71.74
2711;BME280;20721;47.402;8.550;2023-07-13T04:40:40;96237;;;19.80;72.06
2711;BME280;20721;47.402;8.550;2023-07-13T04:42:40;96243;;;19.83;71.70
2711;BME280;20721;47.402;8.550;2023-07-13T04:44:39;96242;;;19.85;71.67
2711;BME280;20721;47.402;8.550;2023-07-13T04:46:40;96243;;;19.85;71.43
2711;BME280;20721;47.402;8.550;2023-07-13T04:49:40;96241;;;19.84;71.69
2711;BME280;20721;47.402;8.550;2023-07-13T04:51:40;96244;;;19.91;71.98
2711;BME280;20721;47.402;8.550;2023-07-13T04:53:40;96244;;;19.97;72.10
2711;BME280;20721;47.402;8.550;2023-07-13T04:55:40;96250;;;20.07;71.99
2711;BME280;20721;47.402;8.550;2023-07-13T04:57:40;96251;;;20.11;71.60
2711;BME280;20721;47.402;8.550;2023-07-13T04:59:40;96257;;;20.12;71.28
2711;BME280;20721;47.402;8.550;2023-07-13T05:02:42;96264;;;20.08;71.35
2711;BME280;20721;47.402;8.550;2023-07-13T05:04:40;96266;;;20.11;71.41
2711;BME280;20721;47.402;8.550;2023-07-13T05:06:40;96272;;;20.11;71.57
2711;BME280;20721;47.402;8.550;2023-07-13T05:08:40;96272;;;20.13;71.44
2711;BME280;20721;47.402;8.550;2023-07-13T05:11:40;96273;;;20.15;71.30
2711;BME280;20721;47.402;8.550;2023-07-13T05:13:40;96275;;;20.19;71.53
2711;BME280;20721;47.402;8.550;2023-07-13T05:16:40;96270;;;20.19;70.97
2711;BME280;20721;47.402;8.550;2023-07-13T05:18:43;96267;;;20.19;70.34
2711;BME280;20721;47.402;8.550;2023-07-13T05:20:40;96275;;;20.10;70.67
2711;BME280;20721;47.402;8.550;2023-07-13T05:22:40;96280;;;20.12;71.13
2711;BME280;20721;47.402;8.550;2023-07-13T05:24:40;96288;;;20.14;71.06
2711;BME280;20721;47.402;8.550;2023-07-13T05:28:40;96291;;;20.10;70.82
2711;BME280;20721;47.402;8.550;2023-07-13T05:31:41;96293;;;20.06;70.39
2711;BME280;20721;47.402;8.550;2023-07-13T05:33:40;96297;;;20.08;70.67
2711;BME280;20721;47.402;8.550;2023-07-13T05:35:40;96301;;;20.10;71.04
2711;BME280;20721;47.402;8.550;2023-07-13T05:38:40;96299;;;20.12;71.01
2711;BME280;20721;47.402;8.550;2023-07-13T05:40:42;96296;;;20.10;70.36
2711;BME280;20721;47.402;8.550;2023-07-13T05:42:40;96295;;;20.04;70.72
2711;BME280;20721;47.402;8.550;2023-07-13T05:44:40;96292;;;19.99;71.31
2711;BME280;20721;47.402;8.550;2023-07-13T05:46:40;96293;;;19.97;71.70
2711;BME280;20721;47.402;8.550;2023-07-13T05:48:40;96295;;;19.99;71.99
2711;BME280;20721;47.402;8.550;2023-07-13T05:50:40;96297;;;20.02;71.87
2711;BME280;20721;47.402;8.550;2023-07-13T05:52:40;96303;;;20.00;71.39
2711;BME280;20721;47.402;8.550;2023-07-13T05:54:40;96307;;;20.04;71.75
2711;BME280;20721;47.402;8.550;2023-07-13T05:56:40;96316;;;20.10;71.66
2711;BME280;20721;47.402;8.550;2023-07-13T05:58:40;96322;;;20.14;71.80
2711;BME280;20721;47.402;8.550;2023-07-13T06:00:40;96328;;;20.14;71.59
2711;BME280;20721;47.402;8.550;2023-07-13T06:02:40;96333;;;20.16;72.07
2711;BME280;20721;47.402;8.550;2023-07-13T06:04:40;96331;;;20.18;71.57
2711;BME280;20721;47.402;8.550;2023-07-13T06:06:40;96328;;;20.20;71.71
2711;BME280;20721;47.402;8.550;2023-07-13T06:09:40;96331;;;20.16;72.21
2711;BME280;20721;47.402;8.550;2023-07-13T06:13:40;96331;;;20.15;70.94
2711;BME280;20721;47.402;8.550;2023-07-13T06:15:40;96325;;;20.16;70.91
2711;BME280;20721;47.402;8.550;2023-07-13T06:17:40;96330;;;20.16;70.88
2711;BME280;20721;47.402;8.550;2023-07-13T06:19:40;96328;;;20.17;70.87
2711;BME280;20721;47.402;8.550;2023-07-13T06:25:40;96342;;;20.13;70.61
2711;BME280;20721;47.402;8.550;2023-07-13T06:27:40;96343;;;20.10;70.68
2711;BME280;20721;47.402;8.550;2023-07-13T06:29:40;96346;;;20.04;69.75
2711;BME280;20721;47.402;8.550;2023-07-13T06:32:42;96346;;;20.02;70.58
2711;BME280;20721;47.402;8.550;2023-07-13T06:34:43;96349;;;20.04;70.81
2711;BME280;20721;47.402;8.550;2023-07-13T06:38:40;96353;;;20.01;70.65
2711;BME280;20721;47.402;8.550;2023-07-13T06:40:40;96355;;;20.04;71.14
2711;BME280;20721;47.402;8.550;2023-07-13T06:42:40;96360;;;20.07;70.79
2711;BME280;20721;47.402;8.550;2023-07-13T06:44:40;96360;;;20.07;70.12
2711;BME280;20721;47.402;8.550;2023-07-13T06:46:40;96362;;;20.03;68.44
2711;BME280;20721;47.402;8.550;2023-07-13T06:48:40;96366;;;19.98;67.67
2711;BME280;20721;47.402;8.550;2023-07-13T06:50:41;96364;;;19.95;67.98
2711;BME280;20721;47.402;8.550;2023-07-13T06:52:40;96364;;;19.91;67.69
2711;BME280;20721;47.402;8.550;2023-07-13T06:54:40;96363;;;19.81;67.57
2711;BME280;20721;47.402;8.550;2023-07-13T06:56:40;96368;;;19.64;66.59
2711;BME280;20721;47.402;8.550;2023-07-13T06:59:40;96374;;;19.68;67.71
2711;BME280;20721;47.402;8.550;2023-07-13T07:01:42;96374;;;19.67;66.67
2711;BME280;20721;47.402;8.550;2023-07-13T07:03:40;96377;;;19.67;66.05
2711;BME280;20721;47.402;8.550;2023-07-13T07:05:40;96373;;;19.35;66.67
2711;BME280;20721;47.402;8.550;2023-07-13T07:07:40;96378;;;19.39;67.42
2711;BME280;20721;47.402;8.550;2023-07-13T07:09:40;96370;;;19.35;65.63
2711;BME280;20721;47.402;8.550;2023-07-13T07:11:50;96370;;;19.35;68.06
2711;BME280;20721;47.402;8.550;2023-07-13T07:13:40;96369;;;19.52;67.76
2711;BME280;20721;47.402;8.550;2023-07-13T07:15:40;96366;;;19.63;68.10
2711;BME280;20721;47.402;8.550;2023-07-13T07:17:40;96361;;;19.62;68.57
2711;BME280;20721;47.402;8.550;2023-07-13T07:19:41;96361;;;19.64;68.00
2711;BME280;20721;47.402;8.550;2023-07-13T07:21:40;96362;;;19.67;68.69
2711;BME280;20721;47.402;8.550;2023-07-13T07:23:40;96361;;;19.78;67.68
2711;BME280;20721;47.402;8.550;2023-07-13T07:25:43;96363;;;19.89;67.73
2711;BME280;20721;47.402;8.550;2023-07-13T07:27:43;96367;;;20.01;67.17
2711;BME280;20721;47.402;8.550;2023-07-13T07:29:49;96371;;;20.04;66.49
2711;BME280;20721;47.402;8.550;2023-07-13T07:31:43;96368;;;20.00;67.14
2711;BME280;20721;47.402;8.550;2023-07-13T07:33:40;96372;;;20.11;66.30
2711;BME280;20721;47.402;8.550;2023-07-13T07:36:43;96376;;;20.14;65.80
2711;BME280;20721;47.402;8.550;2023-07-13T07:38:40;96379;;;20.10;65.78
2711;BME280;20721;47.402;8.550;2023-07-13T07:40:43;96378;;;19.82;66.10
2711;BME280;20721;47.402;8.550;2023-07-13T07:42:40;96381;;;19.63;66.38
2711;BME280;20721;47.402;8.550;2023-07-13T07:44:40;96381;;;19.84;67.90
2711;BME280;20721;47.402;8.550;2023-07-13T07:46:41;96376;;;20.00;66.89
2711;BME280;20721;47.402;8.550;2023-07-13T07:48:40;96374;;;20.07;66.72
2711;BME280;20721;47.402;8.550;2023-07-13T07:50:40;96368;;;20.09;65.28
2711;BME280;20721;47.402;8.550;2023-07-13T07:52:40;96369;;;20.25;65.92
2711;BME280;20721;47.402;8.550;2023-07-13T07:54:43;96371;;;20.38;64.73
2711;BME280;20721;47.402;8.550;2023-07-13T07:56:43;96376;;;20.48;64.57
2711;BME280;20721;47.402;8.550;2023-07-13T07:59:43;96379;;;20.06;62.26
2711;BME280;20721;47.402;8.550;2023-07-13T08:01:50;96376;;;19.87;63.78
2711;BME280;20721;47.402;8.550;2023-07-13T08:03:43;96381;;;19.93;64.52
2711;BME280;20721;47.402;8.550;2023-07-13T08:05:52;96384;;;20.32;64.26
2711;BME280;20721;47.402;8.550;2023-07-13T08:07:40;96381;;;20.79;63.49
2711;BME280;20721;47.402;8.550;2023-07-13T08:09:40;96383;;;21.20;61.24
2711;BME280;20721;47.402;8.550;2023-07-13T08:11:43;96380;;;21.70;61.08
2711;BME280;20721;47.402;8.550;2023-07-13T08:13:40;96378;;;22.19;60.72
2711;BME280;20721;47.402;8.550;2023-07-13T08:15:40;96378;;;22.49;57.30
2711;BME280;20721;47.402;8.550;2023-07-13T08:17:40;96385;;;22.77;56.09
2711;BME280;20721;47.402;8.550;2023-07-13T08:19:41;96391;;;23.14;55.65
2711;BME280;20721;47.402;8.550;2023-07-13T08:21:42;96394;;;23.41;55.29
2711;BME280;20721;47.402;8.550;2023-07-13T08:23:40;96391;;;23.62;53.16
2711;BME280;20721;47.402;8.550;2023-07-13T08:25:40;96389;;;23.87;50.12
2711;BME280;20721;47.402;8.550;2023-07-13T08:27:40;96387;;;24.31;54.08
2711;BME280;20721;47.402;8.550;2023-07-13T08:29:40;96389;;;24.59;53.21
2711;BME280;20721;47.402;8.550;2023-07-13T08:31:40;96386;;;24.65;49.73
2711;BME280;20721;47.402;8.550;2023-07-13T08:33:40;96392;;;24.64;50.25
2711;BME280;20721;47.402;8.550;2023-07-13T08:35:40;96389;;;23.95;51.84
2711;BME280;20721;47.402;8.550;2023-07-13T08:37:40;96388;;;23.83;52.07
2711;BME280;20721;47.402;8.550;2023-07-13T08:39:40;96387;;;23.93;51.89
2711;BME280;20721;47.402;8.550;2023-07-13T08:41:40;96386;;;24.16;51.77
2711;BME280;20721;47.402;8.550;2023-07-13T08:43:40;96388;;;24.42;49.37
2711;BME280;20721;47.402;8.550;2023-07-13T08:45:45;96384;;;24.35;49.19
2711;BME280;20721;47.402;8.550;2023-07-13T08:47:43;96384;;;24.32;49.72
2711;BME280;20721;47.402;8.550;2023-07-13T08:49:40;96385;;;24.40;50.51
2711;BME280;20721;47.402;8.550;2023-07-13T08:51:42;96386;;;24.50;46.66
2711;BME280;20721;47.402;8.550;2023-07-13T08:53:42;96384;;;24.88;48.59
2711;BME280;20721;47.402;8.550;2023-07-13T08:55:40;96384;;;25.41;49.67
2711;BME280;20721;47.402;8.550;2023-07-13T08:57:40;96389;;;25.74;48.67
2711;BME280;20721;47.402;8.550;2023-07-13T08:59:41;96391;;;26.09;49.57
2711;BME280;20721;47.402;8.550;2023-07-13T09:03:41;96384;;;26.42;47.59
2711;BME280;20721;47.402;8.550;2023-07-13T09:05:40;96387;;;26.58;47.19
2711;BME280;20721;47.402;8.550;2023-07-13T09:09:46;96383;;;27.08;46.28
2711;BME280;20721;47.402;8.550;2023-07-13T09:11:43;96378;;;27.31;44.90
2711;BME280;20721;47.402;8.550;2023-07-13T09:13:48;96380;;;27.04;45.01
2711;BME280;20721;47.402;8.550;2023-07-13T09:15:41;96383;;;27.01;46.13
2711;BME280;20721;47.402;8.550;2023-07-13T09:17:41;96383;;;26.96;46.67
2711;BME280;20721;47.402;8.550;2023-07-13T09:19:40;96385;;;26.62;44.78
2711;BME280;20721;47.402;8.550;2023-07-13T09:21:41;96383;;;26.42;47.17
2711;BME280;20721;47.402;8.550;2023-07-13T09:23:40;96378;;;26.25;48.05
2711;BME280;20721;47.402;8.550;2023-07-13T09:25:40;96382;;;26.00;46.83
2711;BME280;20721;47.402;8.550;2023-07-13T09:27:42;96382;;;25.89;48.25
2711;BME280;20721;47.402;8.550;2023-07-13T09:29:45;96386;;;25.80;48.65
2711;BME280;20721;47.402;8.550;2023-07-13T09:31:44;96389;;;25.64;49.08
2711;BME280;20721;47.402;8.550;2023-07-13T09:33:40;96389;;;25.25;48.26
2711;BME280;20721;47.402;8.550;2023-07-13T09:35:40;96395;;;25.16;49.47
2711;BME280;20721;47.402;8.550;2023-07-13T09:38:40;96395;;;25.23;48.78
2711;BME280;20721;47.402;8.550;2023-07-13T09:42:40;96391;;;25.54;49.83
2711;BME280;20721;47.402;8.550;2023-07-13T09:44:59;96394;;;25.69;49.26
2711;BME280;20721;47.402;8.550;2023-07-13T09:46:44;96392;;;25.78;48.63
2711;BME280;20721;47.402;8.550;2023-07-13T09:48:42;96394;;;26.01;47.32
2711;BME280;20721;47.402;8.550;2023-07-13T09:50:41;96395;;;26.13;48.12
2711;BME280;20721;47.402;8.550;2023-07-13T09:52:42;96396;;;26.05;47.49
2711;BME280;20721;47.402;8.550;2023-07-13T09:54:43;96389;;;26.07;47.56
2711;BME280;20721;47.402;8.550;2023-07-13T09:56:40;96393;;;26.21;48.17
2711;BME280;20721;47.402;8.550;2023-07-13T09:58:40;96399;;;25.45;46.64
2711;BME280;20721;47.402;8.550;2023-07-13T10:00:41;96399;;;24.47;48.14
2711;BME280;20721;47.402;8.550;2023-07-13T10:02:41;96403;;;24.54;49.99
2711;BME280;20721;47.402;8.550;2023-07-13T10:04:41;96402;;;24.55;49.70
2711;BME280;20721;47.402;8.550;2023-07-13T10:06:42;96398;;;24.66;50.22
2711;BME280;20721;47.402;8.550;2023-07-13T10:08:41;96396;;;24.66;49.23
2711;BME280;20721;47.402;8.550;2023-07-13T10:10:40;96399;;;24.08;49.42
2711;BME280;20721;47.402;8.550;2023-07-13T10:12:40;96406;;;24.12;50.78
2711;BME280;20721;47.402;8.550;2023-07-13T10:14:41;96407;;;24.28;50.33
2711;BME280;20721;47.402;8.550;2023-07-13T10:16:44;96408;;;24.24;49.89
2711;BME280;20721;47.402;8.550;2023-07-13T10:18:43;96409;;;24.35;51.02
2711;BME280;20721;47.402;8.550;2023-07-13T10:20:41;96412;;;24.48;50.46
2711;BME280;20721;47.402;8.550;2023-07-13T10:22:58;96413;;;24.48;50.32
2711;BME280;20721;47.402;8.550;2023-07-13T10:24:41;96405;;;24.03;50.07
2711;BME280;20721;47.402;8.550;2023-07-13T10:26:43;96406;;;23.99;50.63
2711;BME280;20721;47.402;8.550;2023-07-13T10:28:40;96405;;;24.04;50.71
2711;BME280;20721;47.402;8.550;2023-07-13T10:30:41;96402;;;24.11;50.32
2711;BME280;20721;47.402;8.550;2023-07-13T10:32:40;96409;;;24.17;51.13
2711;BME280;20721;47.402;8.550;2023-07-13T10:34:41;96412;;;24.03;51.03
2711;BME280;20721;47.402;8.550;2023-07-13T10:36:42;96413;;;24.11;51.22
2711;BME280;20721;47.402;8.550;2023-07-13T10:38:41;96410;;;24.24;51.40
2711;BME280;20721;47.402;8.550;2023-07-13T10:40:43;96413;;;24.35;51.73
2711;BME280;20721;47.402;8.550;2023-07-13T10:42:42;96409;;;24.35;51.04
2711;BME280;20721;47.402;8.550;2023-07-13T10:44:40;96410;;;24.37;50.69
2711;BME280;20721;47.402;8.550;2023-07-13T10:46:41;96404;;;24.23;51.08
2711;BME280;20721;47.402;8.550;2023-07-13T10:48:42;96411;;;24.11;51.14
2711;BME280;20721;47.402;8.550;2023-07-13T10:50:41;96408;;;24.10;52.52
2711;BME280;20721;47.402;8.550;2023-07-13T10:52:41;96406;;;24.16;51.82
2711;BME280;20721;47.402;8.550;2023-07-13T10:54:42;96412;;;24.61;51.37
2711;BME280;20721;47.402;8.550;2023-07-13T10:56:41;96412;;;25.08;49.50
2711;BME280;20721;47.402;8.550;2023-07-13T10:58:41;96406;;;25.42;48.97
2711;BME280;20721;47.402;8.550;2023-07-13T11:00:43;96405;;;25.78;47.97
2711;BME280;20721;47.402;8.550;2023-07-13T11:02:41;96409;;;25.89;47.47
2711;BME280;20721;47.402;8.550;2023-07-13T11:04:42;96405;;;25.95;46.07
2711;BME280;20721;47.402;8.550;2023-07-13T11:06:44;96401;;;25.93;46.98
2711;BME280;20721;47.402;8.550;2023-07-13T11:11:41;96399;;;25.91;46.02
2711;BME280;20721;47.402;8.550;2023-07-13T11:15:44;96402;;;26.15;44.90
2711;BME280;20721;47.402;8.550;2023-07-13T11:17:49;96401;;;26.14;43.59
2711;BME280;20721;47.402;8.550;2023-07-13T11:19:41;96396;;;26.13;43.83
2711;BME280;20721;47.402;8.550;2023-07-13T11:23:41;96393;;;25.47;46.04
2711;BME280;20721;47.402;8.550;2023-07-13T11:25:41;96393;;;25.86;45.30
2711;BME280;20721;47.402;8.550;2023-07-13T11:27:42;96392;;;25.39;44.24
2711;BME280;20721;47.402;8.550;2023-07-13T11:29:41;96384;;;25.20;45.95
2711;BME280;20721;47.402;8.550;2023-07-13T11:32:00;96382;;;25.53;46.38
2711;BME280;20721;47.402;8.550;2023-07-13T11:35:43;96376;;;26.15;42.39
2711;BME280;20721;47.402;8.550;2023-07-13T11:37:41;96375;;;26.21;43.07
2711;BME280;20721;47.402;8.550;2023-07-13T11:39:47;96379;;;26.28;43.64
2711;BME280;20721;47.402;8.550;2023-07-13T11:41:45;96376;;;26.42;44.11
2711;BME280;20721;47.402;8.550;2023-07-13T11:43:41;96370;;;26.42;43.09
2711;BME280;20721;47.402;8.550;2023-07-13T11:45:50;96378;;;26.03;42.53
2711;BME280;20721;47.402;8.550;2023-07-13T11:47:42;96375;;;26.15;43.48
2711;BME280;20721;47.402;8.550;2023-07-13T11:49:43;96374;;;26.65;44.55
2711;BME280;20721;47.402;8.550;2023-07-13T11:51:41;96370;;;27.01;41.83
2711;BME280;20721;47.402;8.550;2023-07-13T11:54:56;96365;;;26.78;41.79
2711;BME280;20721;47.402;8.550;2023-07-13T11:56:41;96370;;;26.63;41.89
2711;BME280;20721;47.402;8.550;2023-07-13T11:58:41;96370;;;26.68;41.61
2711;BME280;20721;47.402;8.550;2023-07-13T12:00:41;96368;;;26.46;41.89
2711;BME280;20721;47.402;8.550;2023-07-13T12:02:44;96366;;;26.22;41.84
2711;BME280;20721;47.402;8.550;2023-07-13T12:04:41;96369;;;26.22;42.65